Aérodrome :
LOGIN :

S'inscrire | Disclaimer

   EN    FR    IT 

 










Légende :    VFR   VFR Marginal   IFR   IFR Intensif   IFR Très Intensif
Visi : 
Plafond : 
>= 8 km
>= 3000ft
5 à 8 km
1000 à 3000 ft
1500m à 5 km
500 à 1000 ft
800 à 1500m
200 à 500 ft
< 800m
< 200 ft
Symboles :   Orages  Brouillard  Fortes neiges  Fortes précipitations  Vent > 20 kt
SIGMETs :   Divers  Orages  Givrage  Turbulence  Onde Orograph.  Cendres Volcan.







- Altitude de l'aérodrome : 584 ft
- Voir les cartes d'approche


LFPV - Villacoublay Vélizy

DERNIER METAR :
  • 301030Z AUTO 15007KT 120V190 9999 NSC 19/07 Q1023 NOSIG

METARs EXPIRÉS :
  • 301000Z AUTO 15008KT 120V180 9999 NSC 18/07 Q1024 NOSIG
  • 300930Z AUTO 13006KT 9999 NSC 17/07 Q1024 NOSIG
  • 300900Z AUTO 14005KT 110V170 9999 NSC 16/07 Q1024 NOSIG
  • 300830Z AUTO 14005KT 9999 NSC 15/06 Q1024 NOSIG
  • 300800Z AUTO 13006KT 9999 NSC 14/06 Q1024

TAF TAF LFPV
Valide du 30 à 09h jusqu'au 31 à 09h UTC


300800Z 3009/3109 14008KT CAVOK
Pas de NOTAMs connus pour ce terrain.



MET'MAP, la Météo Aéronautique d'un coup d'oeil ! - Copyright ORBIFLY Décembre 2007 - Disclaimer

ORBIFLY MET'MAP TEAM :

Programmation & Développement : Alexandra Zaïnal
Conception & Développement : Baudouin d'Aumeries
Co-Programmation & Développement : Marc-Olivier Méhu
Soutien technique & logistique : Manuel Goepfert

Contact : metmap@orbifly.com




SOURCES & CREDITS :

   NOAA